createdAt,value
2023-01-29T00:00:02.861Z,3.60
2023-01-29T00:02:48.191Z,3.70
2023-01-29T00:05:38.238Z,3.70
2023-01-29T00:08:07.067Z,3.60
2023-01-29T00:10:35.342Z,3.60
2023-01-29T00:13:03.628Z,3.60
2023-01-29T00:15:32.182Z,3.60
2023-01-29T00:18:01.941Z,3.60
2023-01-29T00:20:38.956Z,3.60
2023-01-29T00:23:09.597Z,3.60
2023-01-29T00:25:37.970Z,3.70
2023-01-29T00:28:10.087Z,3.60
2023-01-29T00:30:43.751Z,3.70
2023-01-29T00:33:20.942Z,3.70
2023-01-29T00:36:21.103Z,3.70
2023-01-29T00:38:54.776Z,3.70
2023-01-29T00:41:46.085Z,3.60
2023-01-29T00:44:36.990Z,3.60
2023-01-29T00:47:25.966Z,3.60
2023-01-29T00:49:55.851Z,3.60
2023-01-29T00:52:29.437Z,3.60
2023-01-29T00:55:01.416Z,3.50
2023-01-29T00:57:31.409Z,3.50
2023-01-29T00:59:59.953Z,3.50
2023-01-29T01:02:46.149Z,3.40
2023-01-29T01:05:18.950Z,3.40
2023-01-29T01:07:48.029Z,3.30
2023-01-29T01:10:23.202Z,3.20
2023-01-29T01:12:54.957Z,3.10
2023-01-29T01:15:24.296Z,3.00
2023-01-29T01:17:56.770Z,2.90
2023-01-29T01:20:27.223Z,2.90
2023-01-29T01:22:55.826Z,2.80
2023-01-29T01:25:25.123Z,2.70
2023-01-29T01:27:54.283Z,2.60
2023-01-29T01:30:23.385Z,2.60
2023-01-29T01:32:51.872Z,2.50
2023-01-29T01:35:20.281Z,2.40
2023-01-29T01:37:49.851Z,2.30
2023-01-29T01:40:21.301Z,2.30
2023-01-29T01:42:50.441Z,2.20
2023-01-29T01:45:26.917Z,2.10
2023-01-29T01:48:00.634Z,2.10
2023-01-29T01:50:32.949Z,2.00
2023-01-29T03:01:43.964Z,2.30
2023-01-29T03:09:06.112Z,2.20
2023-01-29T03:12:29.294Z,2.30
2023-01-29T03:34:05.062Z,1.80
2023-01-29T03:36:39.922Z,1.80
2023-01-29T03:39:09.498Z,1.70
2023-01-29T03:41:42.155Z,1.70
2023-01-29T06:03:14.601Z,0.70
2023-01-29T06:05:42.920Z,0.70
2023-01-29T06:08:19.422Z,0.70
2023-01-29T06:18:30.326Z,0.90
2023-01-29T06:21:02.361Z,0.90
2023-01-29T06:23:34.150Z,1.00
2023-01-29T06:26:02.995Z,1.00
2023-01-29T06:28:31.979Z,1.10
2023-01-29T06:31:11.430Z,1.10
2023-01-29T06:37:59.026Z,1.20
2023-01-29T06:40:27.248Z,1.30
2023-01-29T06:42:55.564Z,1.30
2023-01-29T06:57:13.575Z,1.40
2023-01-29T07:04:37.867Z,1.50
2023-01-29T07:07:13.333Z,1.40
2023-01-29T07:10:24.386Z,1.50
2023-01-29T07:20:06.206Z,1.50
2023-01-29T07:26:13.362Z,1.50
2023-01-29T07:28:42.308Z,1.40
2023-01-29T07:31:14.578Z,1.40
2023-01-29T07:37:27.947Z,1.40
2023-01-29T07:39:56.186Z,1.40
2023-01-29T07:42:26.028Z,1.30
2023-01-29T07:44:54.255Z,1.30
2023-01-29T07:47:22.447Z,1.20
2023-01-29T07:49:50.637Z,1.20
2023-01-29T07:52:20.763Z,1.20
2023-01-29T07:54:50.165Z,1.10
2023-01-29T07:57:18.417Z,1.10
2023-01-29T07:59:48.047Z,1.10
2023-01-29T08:02:16.509Z,1.10
2023-01-29T08:04:44.897Z,1.10
2023-01-29T08:07:13.120Z,1.10
2023-01-29T08:09:41.321Z,1.10
2023-01-29T08:12:09.586Z,1.10
2023-01-29T08:14:42.934Z,1.10
2023-01-29T08:17:12.884Z,1.20
2023-01-29T08:19:41.097Z,1.30
2023-01-29T08:22:09.342Z,1.40
2023-01-29T08:24:53.211Z,1.50
2023-01-29T08:27:25.778Z,1.50
2023-01-29T08:29:54.013Z,1.60
2023-01-29T08:32:41.536Z,1.70
2023-01-29T08:45:16.463Z,2.10
2023-01-29T08:47:49.969Z,2.20
2023-01-29T08:50:19.273Z,2.20
2023-01-29T09:09:55.680Z,2.10
2023-01-29T09:12:23.929Z,2.00
2023-01-29T09:14:52.171Z,2.00
2023-01-29T09:17:20.580Z,2.00
2023-01-29T09:19:52.235Z,2.00
2023-01-29T09:22:20.543Z,2.10
2023-01-29T09:24:48.863Z,2.10
2023-01-29T09:27:17.112Z,2.20
2023-01-29T09:29:45.323Z,2.20
2023-01-29T09:32:13.550Z,2.30
2023-01-29T09:34:41.847Z,2.40
2023-01-29T09:37:11.514Z,2.50
2023-01-29T09:39:39.874Z,2.60
2023-01-29T09:42:13.837Z,2.70
2023-01-29T09:44:55.342Z,2.80
2023-01-29T09:47:26.998Z,2.90
2023-01-29T09:50:01.491Z,3.00
2023-01-29T09:52:34.550Z,3.20
2023-01-29T09:55:08.439Z,3.30
2023-01-29T09:57:45.592Z,3.50
2023-01-29T10:00:17.564Z,3.60
2023-01-29T10:03:16.791Z,3.90
2023-01-29T10:06:06.316Z,4.20
2023-01-29T10:08:51.329Z,4.40
2023-01-29T10:11:31.336Z,4.70
2023-01-29T10:14:10.780Z,4.90
2023-01-29T10:16:55.583Z,5.00
2023-01-29T10:19:44.224Z,5.20
2023-01-29T10:22:51.001Z,5.30
2023-01-29T10:25:27.800Z,5.70
2023-01-29T10:28:00.100Z,6.00
2023-01-29T10:30:34.984Z,6.40
2023-01-29T10:33:06.506Z,6.80
2023-01-29T10:35:38.805Z,7.10
2023-01-29T10:38:25.929Z,7.30
2023-01-29T10:41:15.910Z,7.50
2023-01-29T10:43:55.853Z,7.50
2023-01-29T10:46:34.855Z,7.70
2023-01-29T10:49:19.574Z,7.70
2023-01-29T10:52:03.707Z,7.70
2023-01-29T10:54:50.662Z,7.70
2023-01-29T10:57:30.374Z,7.70
2023-01-29T11:00:13.428Z,7.50
2023-01-29T11:02:46.701Z,7.50
2023-01-29T11:05:39.166Z,7.30
2023-01-29T11:09:13.601Z,7.20
2023-01-29T11:12:41.486Z,6.90
2023-01-29T11:15:27.153Z,6.70
2023-01-29T11:18:10.517Z,6.50
2023-01-29T11:20:40.951Z,6.40
2023-01-29T11:23:27.401Z,6.20
2023-01-29T11:25:57.743Z,6.10
2023-01-29T11:28:40.468Z,6.00
2023-01-29T11:31:24.783Z,5.90
2023-01-29T11:34:02.392Z,5.90
2023-01-29T11:36:38.213Z,5.80
2023-01-29T11:39:18.472Z,5.70
2023-01-29T11:41:51.216Z,5.70
2023-01-29T11:44:28.225Z,5.60
2023-01-29T11:47:00.613Z,5.50
2023-01-29T11:49:34.791Z,5.40
2023-01-29T11:52:06.069Z,5.30
2023-01-29T11:54:41.438Z,5.30
2023-01-29T11:57:39.249Z,5.20
2023-01-29T12:00:19.513Z,5.20
2023-01-29T12:02:55.522Z,5.10
2023-01-29T12:05:27.565Z,5.10
2023-01-29T12:07:59.886Z,5.00
2023-01-29T12:10:39.947Z,5.00
2023-01-29T12:13:20.171Z,5.00
2023-01-29T12:15:53.824Z,5.00
2023-01-29T12:18:31.642Z,4.90
2023-01-29T12:21:03.631Z,4.90
2023-01-29T12:23:37.683Z,4.90
2023-01-29T12:26:16.444Z,4.90
2023-01-29T12:28:55.720Z,4.90
2023-01-29T12:31:34.725Z,4.90
2023-01-29T12:34:11.815Z,4.90
2023-01-29T12:36:45.255Z,5.00
2023-01-29T12:39:17.771Z,5.00
2023-01-29T12:41:52.659Z,5.10
2023-01-29T12:44:39.551Z,5.10
2023-01-29T12:47:12.616Z,5.20
2023-01-29T12:49:47.219Z,5.20
2023-01-29T12:52:23.803Z,5.10
2023-01-29T12:54:58.841Z,5.20
2023-01-29T12:57:39.717Z,5.20
2023-01-29T13:00:15.979Z,5.30
2023-01-29T13:02:53.586Z,5.20
2023-01-29T13:05:27.790Z,5.30
2023-01-29T13:08:02.446Z,5.40
2023-01-29T13:10:34.257Z,5.40
2023-01-29T13:13:08.899Z,5.40
2023-01-29T13:15:51.785Z,5.40
2023-01-29T13:18:34.652Z,5.40
2023-01-29T13:21:05.803Z,5.40
2023-01-29T13:23:38.640Z,5.30
2023-01-29T13:26:07.563Z,5.30
2023-01-29T13:28:36.047Z,5.30
2023-01-29T13:31:28.465Z,5.30
2023-01-29T13:34:06.424Z,5.30
2023-01-29T13:36:39.049Z,5.20
2023-01-29T13:39:09.301Z,5.20
2023-01-29T13:41:41.664Z,5.20
2023-01-29T13:44:21.936Z,5.20
2023-01-29T13:46:55.257Z,5.10
2023-01-29T13:49:30.261Z,5.10
2023-01-29T13:52:01.088Z,5.10
2023-01-29T13:54:38.373Z,5.10
2023-01-29T13:57:09.094Z,5.10
2023-01-29T13:59:56.936Z,5.10
2023-01-29T14:02:30.455Z,5.10
2023-01-29T14:05:38.614Z,5.20
2023-01-29T14:11:56.162Z,5.20
2023-01-29T14:15:00.168Z,5.30
2023-01-29T14:17:28.374Z,5.20
2023-01-29T14:20:03.265Z,5.20
2023-01-29T14:22:33.959Z,5.20
2023-01-29T14:25:06.263Z,5.20
2023-01-29T14:27:38.204Z,5.20
2023-01-29T14:30:10.950Z,5.10
2023-01-29T14:32:41.590Z,5.10
2023-01-29T14:35:20.429Z,5.10
2023-01-29T14:37:51.317Z,5.10
2023-01-29T14:40:23.933Z,5.10
2023-01-29T14:43:00.902Z,5.10
2023-01-29T14:45:31.656Z,5.20
2023-01-29T14:48:08.930Z,5.30
2023-01-29T14:51:00.763Z,5.40
2023-01-29T14:53:44.965Z,5.60
2023-01-29T14:56:18.622Z,5.80
2023-01-29T14:58:50.407Z,6.00
2023-01-29T15:01:24.650Z,6.20
2023-01-29T15:03:54.933Z,6.50
2023-01-29T15:06:30.464Z,6.60
2023-01-29T15:09:06.742Z,6.70
2023-01-29T15:11:41.884Z,6.70
2023-01-29T15:14:24.104Z,6.60
2023-01-29T15:17:05.930Z,6.50
2023-01-29T15:19:37.668Z,6.40
2023-01-29T15:22:11.508Z,6.30
2023-01-29T15:24:40.972Z,6.20
2023-01-29T15:27:14.478Z,6.10
2023-01-29T15:29:48.025Z,6.00
2023-01-29T15:32:28.755Z,5.90
2023-01-29T15:34:58.068Z,5.80
2023-01-29T15:37:28.563Z,5.70
2023-01-29T15:39:57.324Z,5.70
2023-01-29T15:42:27.428Z,5.70
2023-01-29T15:44:57.450Z,5.60
2023-01-29T15:47:29.942Z,5.60
2023-01-29T15:49:58.624Z,5.50
2023-01-29T15:52:29.811Z,5.50
2023-01-29T15:55:02.876Z,5.40
2023-01-29T15:57:37.367Z,5.40
2023-01-29T16:00:18.527Z,5.40
2023-01-29T16:02:46.760Z,5.30
2023-01-29T16:05:17.704Z,5.30
2023-01-29T16:07:47.435Z,5.30
2023-01-29T16:10:21.195Z,5.20
2023-01-29T16:12:52.421Z,5.20
2023-01-29T16:15:32.239Z,5.10
2023-01-29T16:18:01.609Z,5.10
2023-01-29T16:20:39.249Z,5.00
2023-01-29T16:23:08.603Z,4.90
2023-01-29T16:25:39.937Z,4.90
2023-01-29T16:28:11.047Z,4.80
2023-01-29T16:30:41.534Z,4.70
2023-01-29T16:33:15.359Z,4.70
2023-01-29T16:35:44.184Z,4.60
2023-01-29T16:38:27.066Z,4.50
2023-01-29T16:41:18.809Z,4.50
2023-01-29T16:43:50.301Z,4.40
2023-01-29T16:46:38.833Z,4.30
2023-01-29T16:49:36.673Z,4.20
2023-01-29T16:52:19.113Z,4.20
2023-01-29T16:54:47.679Z,4.10
2023-01-29T16:57:20.474Z,4.10
2023-01-29T16:59:49.941Z,4.00
2023-01-29T17:02:27.188Z,3.90
2023-01-29T17:04:59.997Z,3.90
2023-01-29T17:07:31.362Z,3.80
2023-01-29T17:10:01.639Z,3.80
2023-01-29T17:12:32.506Z,3.70
2023-01-29T17:15:02.092Z,3.60
2023-01-29T17:17:33.246Z,3.50
2023-01-29T17:20:12.637Z,3.50
2023-01-29T17:22:53.912Z,3.40
2023-01-29T17:25:22.264Z,3.40
2023-01-29T17:27:52.566Z,3.30
2023-01-29T17:30:22.665Z,3.20
2023-01-29T17:32:52.299Z,3.10
2023-01-29T17:35:22.546Z,3.00
2023-01-29T17:37:50.895Z,2.90
2023-01-29T17:40:30.170Z,2.90
2023-01-29T17:42:58.479Z,2.80
2023-01-29T17:45:31.118Z,2.70
2023-01-29T17:48:00.819Z,2.70
2023-01-29T17:50:32.481Z,2.60
2023-01-29T17:53:01.711Z,2.60
2023-01-29T17:55:29.951Z,2.60
2023-01-29T17:57:58.148Z,2.60
2023-01-29T18:00:26.535Z,2.50
2023-01-29T18:02:54.789Z,2.50
2023-01-29T18:05:24.429Z,2.50
2023-01-29T18:07:54.743Z,2.50
2023-01-29T18:10:23.215Z,2.50
2023-01-29T18:12:51.534Z,2.50
2023-01-29T18:15:20.109Z,2.50
2023-01-29T18:17:49.065Z,2.60
2023-01-29T18:20:20.903Z,2.60
2023-01-29T18:22:51.002Z,2.70
2023-01-29T18:25:20.379Z,2.70
2023-01-29T18:27:49.405Z,2.80
2023-01-29T18:30:18.406Z,2.80
2023-01-29T18:33:16.443Z,2.90
2023-01-29T18:35:45.372Z,3.00
2023-01-29T18:38:15.175Z,3.00
2023-01-29T18:40:43.698Z,3.10
2023-01-29T18:43:26.177Z,3.10
2023-01-29T18:45:59.542Z,3.10
2023-01-29T18:48:27.955Z,3.20
2023-01-29T18:50:56.237Z,3.20
2023-01-29T18:53:29.523Z,3.20
2023-01-29T18:55:59.453Z,3.20
2023-01-29T18:58:35.991Z,3.20
2023-01-29T19:01:09.292Z,3.20
2023-01-29T19:03:38.001Z,3.20
2023-01-29T19:06:08.912Z,3.20
2023-01-29T19:08:38.791Z,3.20
2023-01-29T19:11:09.003Z,3.20
2023-01-29T19:13:38.464Z,3.10
2023-01-29T19:16:09.140Z,3.10
2023-01-29T19:18:37.711Z,3.10
2023-01-29T19:21:09.199Z,3.10
2023-01-29T19:23:39.349Z,3.00
2023-01-29T19:26:08.233Z,3.00
2023-01-29T19:28:36.902Z,3.00
2023-01-29T19:31:05.368Z,3.00
2023-01-29T19:33:33.742Z,3.00
2023-01-29T19:36:02.767Z,3.00
2023-01-29T19:38:33.518Z,3.00
2023-01-29T19:41:05.357Z,3.00
2023-01-29T19:43:34.070Z,3.10
2023-01-29T19:46:03.156Z,3.00
2023-01-29T19:48:31.376Z,3.10
2023-01-29T19:51:01.680Z,3.10
2023-01-29T19:53:30.461Z,3.20
2023-01-29T19:55:59.957Z,3.20
2023-01-29T19:58:30.024Z,3.20
2023-01-29T20:00:59.211Z,3.20
2023-01-29T20:03:28.074Z,3.20
2023-01-29T20:05:56.662Z,3.30
2023-01-29T20:08:25.102Z,3.30
2023-01-29T20:10:53.306Z,3.20
2023-01-29T20:13:21.544Z,3.30
2023-01-29T20:15:53.046Z,3.30
2023-01-29T20:18:21.349Z,3.30
2023-01-29T20:20:50.792Z,3.30
2023-01-29T20:23:31.833Z,3.20
2023-01-29T20:26:05.871Z,3.20
2023-01-29T20:28:34.542Z,3.20
2023-01-29T20:31:04.727Z,3.20
2023-01-29T20:33:34.682Z,3.20
2023-01-29T20:36:04.765Z,3.20
2023-01-29T20:38:34.635Z,3.10
2023-01-29T20:41:07.739Z,3.10
2023-01-29T20:43:36.097Z,3.10
2023-01-29T20:46:06.633Z,3.10
2023-01-29T20:48:34.875Z,3.10
2023-01-29T20:51:08.130Z,3.20
2023-01-29T20:53:37.169Z,3.20
2023-01-29T20:56:06.351Z,3.20
2023-01-29T20:58:34.840Z,3.20
2023-01-29T21:01:07.756Z,3.20
2023-01-29T21:03:37.596Z,3.20
2023-01-29T21:06:06.437Z,3.20
2023-01-29T21:08:35.333Z,3.30
2023-01-29T21:11:03.692Z,3.30
2023-01-29T21:13:31.994Z,3.40
2023-01-29T21:16:00.740Z,3.30
2023-01-29T21:18:28.978Z,3.40
2023-01-29T21:20:58.564Z,3.40
2023-01-29T21:23:26.920Z,3.40
2023-01-29T21:25:55.132Z,3.40
2023-01-29T21:28:23.396Z,3.40
2023-01-29T21:30:51.599Z,3.40
2023-01-29T21:33:19.832Z,3.40
2023-01-29T21:35:48.524Z,3.40
2023-01-29T21:38:18.142Z,3.40
2023-01-29T21:40:46.424Z,3.40
2023-01-29T21:43:13.629Z,3.40
2023-01-29T21:45:42.181Z,3.40
2023-01-29T21:48:11.409Z,3.30
2023-01-29T21:50:40.128Z,3.30
2023-01-29T21:53:08.326Z,3.30
2023-01-29T21:55:37.917Z,3.30
2023-01-29T21:58:06.447Z,3.30
2023-01-29T22:00:34.722Z,3.20
2023-01-29T22:03:03.109Z,3.20
2023-01-29T22:05:31.705Z,3.20
2023-01-29T22:07:59.919Z,3.20
2023-01-29T22:10:28.657Z,3.30
2023-01-29T22:13:00.350Z,3.30
2023-01-29T22:15:28.579Z,3.30
2023-01-29T22:17:56.884Z,3.30
2023-01-29T22:20:30.174Z,3.30
2023-01-29T22:23:00.569Z,3.30
2023-01-29T22:25:29.251Z,3.30
2023-01-29T22:27:58.973Z,3.30
2023-01-29T22:30:27.492Z,3.40
2023-01-29T22:32:56.273Z,3.40
2023-01-29T22:35:24.578Z,3.40
2023-01-29T22:37:52.796Z,3.40
2023-01-29T22:40:21.346Z,3.40
2023-01-29T22:42:49.598Z,3.40
2023-01-29T22:45:19.259Z,3.40
2023-01-29T22:47:47.598Z,3.40
2023-01-29T22:50:16.214Z,3.40
2023-01-29T22:52:54.006Z,3.40
2023-01-29T22:55:22.621Z,3.40
2023-01-29T22:57:51.299Z,3.40
2023-01-29T23:00:23.485Z,3.40
2023-01-29T23:02:52.167Z,3.40
2023-01-29T23:05:20.448Z,3.40
2023-01-29T23:07:48.681Z,3.40
2023-01-29T23:10:17.894Z,3.50
2023-01-29T23:12:46.326Z,3.50
2023-01-29T23:15:14.548Z,3.50
2023-01-29T23:17:45.231Z,3.50
2023-01-29T23:20:14.158Z,3.50
2023-01-29T23:22:42.447Z,3.50
2023-01-29T23:25:11.161Z,3.50
2023-01-29T23:27:38.410Z,3.50
2023-01-29T23:30:07.932Z,3.50
2023-01-29T23:32:36.491Z,3.50
2023-01-29T23:35:06.729Z,3.50
2023-01-29T23:37:35.069Z,3.50
2023-01-29T23:40:03.990Z,3.50
2023-01-29T23:42:32.428Z,3.50
2023-01-29T23:45:00.626Z,3.50
2023-01-29T23:47:28.958Z,3.50
2023-01-29T23:49:57.479Z,3.50
2023-01-29T23:52:27.059Z,3.60
2023-01-29T23:54:55.247Z,3.50
2023-01-29T23:57:23.462Z,3.50
2023-01-29T23:59:51.651Z,3.50
